Aérodrome :
LOGIN :

S'inscrire | Disclaimer

   EN    FR    IT 

 










Légende :    VFR   VFR Marginal   IFR   IFR Intensif   IFR Très Intensif
Visi : 
Plafond : 
>= 8 km
>= 3000ft
5 à 8 km
1000 à 3000 ft
1500m à 5 km
500 à 1000 ft
800 à 1500m
200 à 500 ft
< 800m
< 200 ft
Symboles :   Orages  Brouillard  Fortes neiges  Fortes précipitations  Vent > 20 kt
SIGMETs :   Divers  Orages  Givrage  Turbulence  Onde Orograph.  Cendres Volcan.







- Altitude de l'aérodrome : 2220 ft


LOXZ - Zeltweg AB

DERNIER METAR :
  • 191750Z 26001KT 10KM -RA SCT015ST SCT030SC OVC050SC 07/06 Q1014

METARs EXPIRÉS :
  • 191720Z 05001KT 10KM -RA FEW010ST SCT032SC OVC040SC 07/06 Q1014 NOSIG
  • 191650Z 25001KT 10KM -RA FEW006ST SCT018SC OVC040SC 07/06 Q1014 NOSIG
  • 191620Z 30002KT 10KM -RA FEW006ST SCT035SC OVC040SC 07/06 Q1014 NOSIG
  • 191550Z 14001KT 10KM FEW007ST SCT040SC OVC060SC 07/05 Q1014 NOSIG

TAF TAF LOXZ
Valide du 19 à 15h jusqu'au 20 à 00h UTC


191415Z 1915/1924 VRB03KT 9999 -RA FEW005 SCT025 BKN050
TEMPO 1915/1917 6000 RA FEW005 SCT014 BKN030
BECMG 1919/1921 9999 FEW015 SCT050 BKN100
Pas de NOTAMs connus pour ce terrain.
1 SIGMET publié pour la FIR Wien (LOVV) :
 
Orages noyés dans la masse
LOVV SIGMET 8 VALID 191818/191915 LOWW
LOVV WIEN FIR EMBD TS FCST WI N4740 E01305 - N4810 E01305 - N4810 E01340 - N4740 E01340 - N4740 E01305 TOP FL240 STNR WKN=



MET'MAP, la Météo Aéronautique d'un coup d'oeil ! - Copyright ORBIFLY Décembre 2007 - Disclaimer

ORBIFLY MET'MAP TEAM :

Programmation & Développement : Alexandra Zaïnal
Conception & Développement : Baudouin d'Aumeries
Co-Programmation & Développement : Marc-Olivier Méhu
Soutien technique & logistique : Manuel Goepfert

Contact : metmap@orbifly.com




SOURCES & CREDITS :

   NOAA